Terminal Aerodrome Forecast
Issued by NWS

Home | Current Version | Previous Version | Text Only | Print | Product List | Glossary On
Versions: 1 2 3 4 5 6 7 8 9 10 11 12 13 14 15 16 17 18 19 20 21
006
FTUS43 KAPX 081738
TAFPLN
TAF
KPLN 081738Z 0818/0918 VRB04KT P6SM SCT035 BKN100
     FM082000 35006KT P6SM SCT030 BKN100
     FM090400 33007KT P6SM -SN OVC012
     FM090900 31012KT 3SM -SN BR OVC015
     FM091300 33015KT 1SM -SN BLSN OVC012
     FM091600 32012G21KT 2SM -SN BLSN OVC018=

USA.gov is the U.S. government's official web portal to all federal, state and local government web resources and services.